Time;durP1;ratioP1;P1;durP2;ratioP2;P2;SDS_P1;SDS_P2;PMS_P1;PMS_P2;Temp;Humidity;BMP_temperature;BMP_pressure;BME280_temperature;BME280_humidity;BME280_pressure;Samples;Min_cycle;Max_cycle;Signal;HPM_P1;HPM_P2
2023/01/11 00:00:33;;;;;;;1.80;1.20;;;;;;;4.76;60.79;95935.41;5075690;28;20224;-85
2023/01/11 00:03:03;;;;;;;1.23;1.13;;;;;;;4.88;60.66;95936.06;5075639;28;20672;-85
2023/01/11 00:05:29;;;;;;;1.30;1.10;;;;;;;4.91;59.95;95917.94;5076011;28;20247;-85
2023/01/11 00:07:57;;;;;;;2.00;1.33;;;;;;;5.02;60.44;95909.34;5075110;28;20262;-85
2023/01/11 00:10:24;;;;;;;1.27;1.17;;;;;;;5.12;59.89;95913.53;5075257;28;20188;-84
2023/01/11 00:12:50;;;;;;;1.33;1.00;;;;;;;5.12;60.13;95915.28;5075851;28;20205;-85
2023/01/11 00:15:17;;;;;;;1.97;1.30;;;;;;;5.17;59.96;95910.56;5075615;28;20282;-85
2023/01/11 00:17:43;;;;;;;2.53;1.40;;;;;;;5.24;59.82;95910.81;5075533;28;20771;-85
2023/01/11 00:20:11;;;;;;;2.23;1.50;;;;;;;5.25;60.08;95915.00;5075088;28;20221;-85
2023/01/11 00:22:38;;;;;;;1.70;1.37;;;;;;;5.20;59.76;95907.72;5075684;28;20226;-85
2023/01/11 00:25:05;;;;;;;1.80;1.30;;;;;;;5.18;60.24;95901.97;5075123;28;20274;-84
2023/01/11 00:27:32;;;;;;;1.80;1.33;;;;;;;5.23;60.48;95904.91;5075863;28;20205;-85
2023/01/11 00:29:58;;;;;;;1.37;1.20;;;;;;;5.19;61.02;95886.53;5075544;28;20204;-85
2023/01/11 00:32:26;;;;;;;1.80;1.30;;;;;;;5.10;60.85;95899.28;5076430;28;20200;-85
2023/01/11 00:34:52;;;;;;;2.90;1.50;;;;;;;5.06;61.50;95893.63;5075717;28;20226;-85
2023/01/11 00:37:20;;;;;;;3.53;1.20;;;;;;;5.01;61.21;95892.41;5074847;28;20201;-85
2023/01/11 00:39:46;;;;;;;1.60;1.37;;;;;;;4.94;61.29;95893.91;5074468;28;20636;-85
2023/01/11 00:48:00;;;;;;;1.43;1.20;;;;;;;4.95;61.96;95885.31;5074544;28;20694;-84
2023/01/11 00:50:29;;;;;;;2.00;1.27;;;;;;;4.94;62.26;95881.16;5075280;28;20201;-84
2023/01/11 00:52:57;;;;;;;1.30;1.20;;;;;;;4.97;62.28;95881.72;5075013;28;20232;-84
2023/01/11 00:55:23;;;;;;;2.17;1.33;;;;;;;5.07;62.63;95879.94;5075646;28;20241;-85
2023/01/11 00:57:50;;;;;;;1.63;1.30;;;;;;;5.10;62.23;95878.88;5074794;28;20231;-85
2023/01/11 01:00:17;;;;;;;1.70;1.30;;;;;;;5.18;62.41;95876.47;5055735;28;20263;-84
2023/01/11 01:02:44;;;;;;;1.87;1.20;;;;;;;5.18;62.34;95876.47;5055909;28;20201;-85
2023/01/11 01:05:10;;;;;;;2.70;1.10;;;;;;;5.16;62.40;95883.44;5071406;28;20255;-85
2023/01/11 01:07:37;;;;;;;1.60;1.10;;;;;;;5.11;62.12;95893.25;5074375;28;20205;-85
2023/01/11 01:10:07;;;;;;;1.77;1.10;;;;;;;5.11;61.96;95880.47;5075375;28;20208;-82
2023/01/11 01:15:26;;;;;;;1.53;1.40;;;;;;;5.05;62.45;95889.47;5027490;28;20220;-83
2023/01/11 01:17:54;;;;;;;1.50;1.30;;;;;;;5.09;62.51;95890.81;5075493;28;20204;-82
2023/01/11 01:20:21;;;;;;;1.67;1.20;;;;;;;5.06;62.87;95893.63;5076153;28;20252;-83
2023/01/11 01:22:48;;;;;;;2.23;1.27;;;;;;;5.03;63.20;95901.56;5079003;28;20231;-83
2023/01/11 01:25:16;;;;;;;1.40;1.30;;;;;;;5.02;63.10;95899.13;5079597;28;20232;-83
2023/01/11 01:27:42;;;;;;;1.37;1.27;;;;;;;5.06;63.80;95897.94;5078316;28;20204;-83
2023/01/11 01:30:10;;;;;;;2.20;1.03;;;;;;;5.03;63.53;95891.34;5078823;28;20200;-82
2023/01/11 01:32:36;;;;;;;2.03;1.20;;;;;;;5.07;63.78;95897.00;5079120;28;20197;-83
2023/01/11 01:35:03;;;;;;;1.67;1.33;;;;;;;5.13;63.94;95899.03;5078154;28;20220;-82
2023/01/11 01:37:29;;;;;;;1.47;1.20;;;;;;;5.16;63.95;95907.22;5078321;28;20250;-82
2023/01/11 01:39:55;;;;;;;1.27;1.10;;;;;;;5.18;63.80;95886.66;5079060;28;20247;-83
2023/01/11 01:42:24;;;;;;;1.33;1.07;;;;;;;5.16;64.15;95894.44;5077479;28;20204;-83
2023/01/11 01:44:58;;;;;;;0.80;0.80;;;;;;;5.13;64.85;95893.91;5078565;28;20217;-82
2023/01/11 01:47:29;;;;;;;1.93;1.10;;;;;;;5.15;66.02;95892.03;5078040;28;20208;-82
2023/01/11 01:49:57;;;;;;;1.50;1.00;;;;;;;5.04;69.07;95884.50;5077343;28;20197;-83
2023/01/11 01:52:27;;;;;;;0.67;0.67;;;;;;;5.03;69.80;95876.03;5077571;28;20208;-82
2023/01/11 01:54:57;;;;;;;1.03;0.87;;;;;;;5.10;70.81;95879.69;5077565;28;20228;-81
2023/01/11 01:57:30;;;;;;;0.87;0.80;;;;;;;5.13;72.85;95878.59;5078453;28;20196;-82
2023/01/11 02:00:00;;;;;;;1.23;1.13;;;;;;;5.19;73.14;95883.16;5078023;28;20225;-82
2023/01/11 02:02:27;;;;;;;1.30;0.90;;;;;;;5.24;74.20;95875.09;5078791;28;20300;-82
2023/01/11 02:04:56;;;;;;;1.10;0.70;;;;;;;5.17;75.84;95875.66;5078009;28;20217;-82
2023/01/11 02:07:26;;;;;;;0.70;0.70;;;;;;;5.25;75.92;95874.94;5078200;28;20232;-82
2023/01/11 02:09:58;;;;;;;0.70;0.70;;;;;;;5.24;77.00;95869.97;5078450;28;20260;-82
2023/01/11 02:12:29;;;;;;;0.80;0.80;;;;;;;5.24;77.06;95872.53;5078688;28;20205;-82
2023/01/11 02:14:56;;;;;;;0.60;0.60;;;;;;;5.21;78.63;95866.75;5077371;28;20259;-82
2023/01/11 02:17:22;;;;;;;1.20;0.80;;;;;;;5.16;79.11;95868.94;5078700;28;20973;-82
2023/01/11 02:19:56;;;;;;;1.20;0.77;;;;;;;4.99;81.07;95863.72;5077264;28;20197;-82
2023/01/11 02:22:53;;;;;;;1.27;0.90;;;;;;;4.93;82.28;95867.59;5091205;28;20219;-82
2023/01/11 02:26:04;;;;;;;0.70;0.70;;;;;;;4.96;81.60;95861.44;5089500;28;20224;-82
2023/01/11 02:28:36;;;;;;;0.70;0.70;;;;;;;5.00;82.14;95853.38;5091227;28;20201;-82
2023/01/11 02:31:11;;;;;;;0.73;0.60;;;;;;;5.01;82.19;95849.03;5091090;28;20200;-82
2023/01/11 02:33:44;;;;;;;0.87;0.80;;;;;;;5.04;81.66;95844.47;5091495;28;20207;-82
2023/01/11 02:36:21;;;;;;;0.80;0.80;;;;;;;5.13;82.07;95845.44;5091674;28;20242;-82
2023/01/11 02:38:56;;;;;;;0.60;0.57;;;;;;;5.14;81.73;95840.19;5092029;28;20223;-82
2023/01/11 02:45:00;;;;;;;0.70;0.70;;;;;;;5.20;81.73;95842.16;5091341;28;20224;-82
2023/01/11 02:47:17;;;;;;;0.90;0.80;;;;;;;5.16;82.60;95835.75;5082172;28;20251;-82
2023/01/11 02:49:50;;;;;;;0.87;0.70;;;;;;;5.11;83.80;95829.44;5081588;28;20208;-83
2023/01/11 02:52:23;;;;;;;0.83;0.77;;;;;;;5.16;83.51;95820.44;5079566;28;20239;-82
2023/01/11 02:54:54;;;;;;;0.53;0.53;;;;;;;5.14;85.12;95827.44;5080780;28;20228;-82
2023/01/11 02:57:21;;;;;;;0.77;0.70;;;;;;;5.14;85.79;95822.31;5080551;28;20201;-82
2023/01/11 02:59:50;;;;;;;0.70;0.70;;;;;;;5.17;85.55;95819.50;5080192;28;20197;-82
2023/01/11 03:02:17;;;;;;;1.20;0.70;;;;;;;5.18;86.33;95817.75;5080199;28;20250;-82
2023/01/11 03:04:43;;;;;;;1.03;0.67;;;;;;;5.20;86.32;95819.19;5068593;28;20236;-82
2023/01/11 03:07:20;;;;;;;1.00;0.90;;;;;;;5.29;85.39;95809.13;5060807;28;20201;-82
2023/01/11 03:10:01;;;;;;;1.03;0.83;;;;;;;5.33;84.85;95813.00;5059888;28;20200;-82
2023/01/11 03:12:50;;;;;;;0.70;0.60;;;;;;;5.38;84.74;95806.56;5060527;28;20227;-82
2023/01/11 03:15:33;;;;;;;0.40;0.40;;;;;;;5.38;85.12;95806.56;5060438;28;20221;-82
2023/01/11 03:18:14;;;;;;;0.80;0.60;;;;;;;5.40;85.03;95804.63;5059419;28;20262;-82
2023/01/11 03:20:44;;;;;;;1.20;0.60;;;;;;;5.45;84.83;95797.38;5059712;28;20224;-82
2023/01/11 03:23:19;;;;;;;0.57;0.57;;;;;;;5.40;85.84;95796.19;5058635;28;20217;-82
2023/01/11 03:25:56;;;;;;;1.13;0.70;;;;;;;5.45;85.45;95787.16;5058808;28;20228;-82
2023/01/11 03:28:29;;;;;;;0.60;0.60;;;;;;;5.54;85.19;95782.97;5059490;28;20197;-82
2023/01/11 03:31:02;;;;;;;0.60;0.60;;;;;;;5.56;85.79;95775.97;5058689;28;20683;-82
2023/01/11 03:33:36;;;;;;;1.17;0.60;;;;;;;5.53;85.61;95784.72;5057899;28;20202;-82
2023/01/11 03:36:11;;;;;;;0.77;0.70;;;;;;;5.57;85.73;95771.69;5057738;28;20704;-82
2023/01/11 03:38:43;;;;;;;0.70;0.70;;;;;;;5.61;85.37;95771.22;5057123;28;20201;-82
2023/01/11 03:41:16;;;;;;;0.60;0.60;;;;;;;5.66;85.21;95765.72;5056762;28;20225;-82
2023/01/11 03:43:46;;;;;;;0.80;0.70;;;;;;;5.63;85.19;95761.69;5056528;28;20201;-82
2023/01/11 03:46:18;;;;;;;0.60;0.60;;;;;;;5.69;84.77;95755.22;5071544;28;20274;-81
2023/01/11 03:48:49;;;;;;;0.70;0.60;;;;;;;5.75;84.07;95749.53;5077300;28;20196;-82
2023/01/11 03:51:21;;;;;;;1.67;0.70;;;;;;;5.83;83.48;95747.06;5077112;28;20626;-82
2023/01/11 03:53:50;;;;;;;0.70;0.70;;;;;;;5.85;83.37;95745.16;5077154;28;20219;-82
2023/01/11 03:56:21;;;;;;;0.77;0.60;;;;;;;5.86;82.89;95734.81;5075938;28;20278;-82
2023/01/11 03:58:47;;;;;;;0.50;0.50;;;;;;;5.85;82.90;95735.75;5076483;28;20416;-82
2023/01/11 04:01:15;;;;;;;0.50;0.50;;;;;;;5.83;82.59;95729.19;5075034;28;20220;-83
2023/01/11 04:03:42;;;;;;;0.50;0.50;;;;;;;5.81;82.97;95734.44;5072031;28;20217;-82
2023/01/11 04:06:11;;;;;;;0.97;0.63;;;;;;;5.85;83.04;95732.41;5055458;28;20230;-83
2023/01/11 04:08:37;;;;;;;2.43;0.70;;;;;;;5.90;82.72;95735.38;5055868;28;20201;-82
2023/01/11 04:11:04;;;;;;;0.63;0.63;;;;;;;5.90;82.70;95730.25;5056359;28;20201;-83
2023/01/11 04:13:31;;;;;;;0.70;0.70;;;;;;;5.92;82.83;95728.34;5056814;28;20233;-82
2023/01/11 04:15:57;;;;;;;1.27;0.53;;;;;;;5.87;82.63;95731.31;5055969;28;20279;-83
2023/01/11 04:18:25;;;;;;;0.60;0.60;;;;;;;5.93;82.20;95724.06;5055651;28;20220;-82
2023/01/11 04:20:51;;;;;;;1.00;0.60;;;;;;;5.99;81.97;95728.56;5055918;28;20268;-82
2023/01/11 04:23:18;;;;;;;0.77;0.60;;;;;;;5.98;81.90;95727.75;5056148;28;20550;-82
2023/01/11 04:25:45;;;;;;;0.93;0.63;;;;;;;5.98;81.70;95725.22;5056076;28;20574;-83
2023/01/11 04:28:12;;;;;;;0.93;0.73;;;;;;;6.05;81.70;95730.56;5056190;28;20205;-82
2023/01/11 04:30:38;;;;;;;0.83;0.73;;;;;;;6.04;81.19;95728.94;5055478;28;20201;-82
2023/01/11 04:33:05;;;;;;;1.17;0.67;;;;;;;6.02;81.21;95730.84;5054854;28;20205;-82
2023/01/11 04:35:32;;;;;;;0.60;0.60;;;;;;;6.02;81.40;95733.41;5055446;28;20279;-82
2023/01/11 04:37:59;;;;;;;0.63;0.63;;;;;;;6.03;80.99;95720.47;5055055;28;20208;-82
2023/01/11 04:40:25;;;;;;;1.07;0.70;;;;;;;6.05;81.17;95720.31;5055323;28;20703;-82
2023/01/11 04:42:51;;;;;;;0.60;0.60;;;;;;;6.06;81.21;95719.38;5072537;28;20208;-83
2023/01/11 04:45:17;;;;;;;0.70;0.60;;;;;;;6.04;81.07;95716.97;5075544;28;20216;-82
2023/01/11 04:47:44;;;;;;;0.77;0.63;;;;;;;6.09;80.50;95711.44;5074869;28;20216;-82
2023/01/11 04:50:11;;;;;;;0.60;0.60;;;;;;;6.12;80.29;95717.06;5075190;28;20250;-82
2023/01/11 04:52:40;;;;;;;1.03;0.70;;;;;;;6.12;80.03;95708.59;5074756;28;20204;-82
2023/01/11 04:55:07;;;;;;;0.70;0.70;;;;;;;6.17;79.97;95712.28;5074477;28;20235;-83
2023/01/11 04:57:34;;;;;;;0.70;0.70;;;;;;;6.16;79.94;95704.75;5073836;28;20205;-85
2023/01/11 05:00:00;;;;;;;0.87;0.70;;;;;;;6.14;79.81;95707.50;5074735;28;20208;-85
2023/01/11 05:02:26;;;;;;;1.00;0.77;;;;;;;6.20;80.01;95703.53;5072497;28;20221;-82
2023/01/11 05:04:53;;;;;;;0.83;0.77;;;;;;;6.21;79.45;95702.59;5073539;28;20360;-82
2023/01/11 05:07:19;;;;;;;1.23;0.70;;;;;;;6.19;79.14;95705.28;5073632;28;20216;-82
2023/01/11 05:09:47;;;;;;;0.90;0.77;;;;;;;6.25;79.31;95698.78;5073595;28;20207;-82
2023/01/11 05:12:13;;;;;;;1.07;0.70;;;;;;;6.23;78.71;95705.81;5053737;28;20198;-82
2023/01/11 05:14:40;;;;;;;1.13;0.70;;;;;;;6.27;78.80;95699.44;5054220;28;20741;-82
2023/01/11 05:17:06;;;;;;;0.70;0.70;;;;;;;6.29;78.60;95701.84;5054153;28;20209;-82
2023/01/11 05:19:32;;;;;;;0.70;0.70;;;;;;;6.29;78.27;95695.00;5063438;28;20222;-83
2023/01/11 05:21:59;;;;;;;0.80;0.70;;;;;;;6.30;78.01;95698.34;5072564;28;20228;-82
2023/01/11 05:24:25;;;;;;;0.60;0.60;;;;;;;6.33;77.95;95683.53;5073321;28;20653;-81
2023/01/11 05:26:53;;;;;;;0.70;0.70;;;;;;;6.31;78.14;95685.44;5073043;28;20211;-82
2023/01/11 05:29:20;;;;;;;0.90;0.77;;;;;;;6.33;78.26;95688.66;5069442;28;20778;-82
2023/01/11 05:31:47;;;;;;;0.90;0.70;;;;;;;6.31;78.57;95685.44;5070418;28;20197;-82
2023/01/11 05:34:15;;;;;;;1.80;0.80;;;;;;;6.31;78.42;95687.19;5071008;28;20201;-85
2023/01/11 05:36:42;;;;;;;0.70;0.70;;;;;;;6.33;78.23;95688.66;5071439;28;20189;-84
2023/01/11 05:39:10;;;;;;;1.57;0.87;;;;;;;6.33;78.46;95693.75;5071829;28;20246;-83
2023/01/11 05:41:36;;;;;;;1.23;0.83;;;;;;;6.39;78.21;95697.47;5071842;28;20224;-83
2023/01/11 05:46:49;;;;;;;3.00;0.90;;;;;;;6.54;77.61;95696.00;5069765;28;20196;-82
2023/01/11 05:49:15;;;;;;;0.80;0.80;;;;;;;6.58;77.56;95687.84;5069617;28;20614;-82
2023/01/11 05:51:43;;;;;;;2.47;1.10;;;;;;;6.65;76.99;95689.81;5069169;28;20209;-83
2023/01/11 05:54:12;;;;;;;1.00;0.90;;;;;;;6.70;76.90;95698.66;5069044;28;20208;-82
2023/01/11 05:56:38;;;;;;;1.10;1.00;;;;;;;6.73;76.75;95693.25;5071153;28;20260;-83
2023/01/11 05:59:06;;;;;;;1.27;0.90;;;;;;;6.75;77.04;95690.53;5072498;28;20205;-85
2023/01/11 06:01:32;;;;;;;1.53;1.00;;;;;;;6.77;77.02;95702.22;5071376;28;20228;-82
2023/01/11 06:03:59;;;;;;;1.60;1.23;;;;;;;6.79;76.48;95704.63;5072132;28;20557;-82
2023/01/11 06:06:25;;;;;;;1.43;0.97;;;;;;;6.74;77.11;95701.69;5072635;28;20639;-82
2023/01/11 06:08:52;;;;;;;1.20;1.10;;;;;;;6.67;76.29;95693.84;5075559;28;20201;-82
2023/01/11 06:11:18;;;;;;;2.23;1.03;;;;;;;6.67;78.95;95682.81;5075409;28;20246;-83
2023/01/11 06:13:44;;;;;;;1.70;1.10;;;;;;;6.71;79.97;95687.47;5076406;28;20197;-82
2023/01/11 06:16:14;;;;;;;18.57;3.83;;;;;;;6.75;79.29;95688.75;5075382;28;20260;-83
2023/01/11 06:18:43;;;;;;;3.67;2.07;;;;;;;6.77;78.50;95680.94;5074596;28;20204;-82
2023/01/11 06:21:10;;;;;;;3.40;1.50;;;;;;;6.80;77.26;95678.88;5077149;28;20331;-82
2023/01/11 06:23:42;;;;;;;2.70;1.13;;;;;;;6.77;75.87;95680.94;5076395;28;20205;-82
2023/01/11 06:26:10;;;;;;;1.70;0.90;;;;;;;6.70;75.49;95675.66;5076155;28;20220;-82
2023/01/11 06:28:37;;;;;;;3.47;2.90;;;;;;;6.76;75.59;95675.03;5075479;28;20201;-83
2023/01/11 06:31:05;;;;;;;1.40;1.30;;;;;;;6.80;75.52;95675.53;5075513;28;20635;-82
2023/01/11 06:33:33;;;;;;;0.80;0.80;;;;;;;6.82;75.72;95681.31;5075476;28;20197;-82
2023/01/11 06:36:03;;;;;;;1.20;1.00;;;;;;;6.83;75.78;95680.34;5075870;28;20217;-83
2023/01/11 06:38:29;;;;;;;1.20;1.00;;;;;;;6.77;76.51;95679.19;5075670;28;20209;-82
2023/01/11 06:40:59;;;;;;;1.50;1.03;;;;;;;6.67;76.59;95682.81;5076192;28;20200;-82
2023/01/11 06:43:26;;;;;;;1.07;1.00;;;;;;;6.71;76.75;95692.59;5075015;28;20250;-83
2023/01/11 06:45:53;;;;;;;1.50;1.10;;;;;;;6.74;76.61;95688.91;5073443;28;20223;-83
2023/01/11 06:48:21;;;;;;;1.27;1.17;;;;;;;6.75;76.61;95687.97;5072697;28;20197;-82
2023/01/11 06:50:50;;;;;;;1.40;1.20;;;;;;;6.78;76.68;95693.59;5075582;28;20200;-82
2023/01/11 06:53:16;;;;;;;1.10;1.00;;;;;;;6.77;76.41;95684.31;5075475;28;20211;-85
2023/01/11 06:55:48;;;;;;;2.33;1.20;;;;;;;6.71;76.99;95695.16;5075590;28;20213;-85
2023/01/11 06:58:15;;;;;;;1.20;1.10;;;;;;;6.73;76.82;95695.00;5076709;28;20201;-85
2023/01/11 07:00:41;;;;;;;1.43;0.97;;;;;;;6.74;77.12;95694.03;5073611;28;20201;-85
2023/01/11 07:03:08;;;;;;;1.60;1.23;;;;;;;6.76;76.78;95689.56;5074526;28;20230;-85
2023/01/11 07:05:35;;;;;;;1.90;1.00;;;;;;;6.76;76.48;95692.13;5075509;28;20219;-85
2023/01/11 07:08:05;;;;;;;1.67;1.17;;;;;;;6.74;76.26;95692.28;5078512;28;20197;-85
2023/01/11 07:10:32;;;;;;;2.43;1.23;;;;;;;6.77;76.51;95701.41;5078011;28;20197;-85
2023/01/11 07:12:58;;;;;;;1.67;1.30;;;;;;;6.79;76.07;95697.75;5077239;28;20193;-85
2023/01/11 07:15:28;;;;;;;3.07;1.30;;;;;;;6.79;76.24;95692.63;5075487;28;20228;-85
2023/01/11 07:17:59;;;;;;;1.40;1.30;;;;;;;6.85;75.88;95696.34;5076133;28;20209;-82
2023/01/11 07:20:26;;;;;;;1.97;1.40;;;;;;;6.91;75.85;95698.31;5075750;28;20230;-85
2023/01/11 07:23:00;;;;;;;2.07;1.63;;;;;;;6.94;75.22;95690.31;5076002;28;20220;-84
2023/01/11 07:25:29;;;;;;;1.17;1.00;;;;;;;6.99;75.08;95689.88;5076020;28;20910;-85
2023/01/11 07:27:57;;;;;;;1.50;1.30;;;;;;;6.97;75.28;95686.66;5077652;28;20231;-84
2023/01/11 07:30:24;;;;;;;1.93;1.20;;;;;;;6.96;75.27;95682.50;5075730;28;20224;-85
2023/01/11 07:32:50;;;;;;;2.77;1.27;;;;;;;6.97;75.05;95677.22;5073155;28;20559;-85
2023/01/11 07:35:17;;;;;;;1.77;1.27;;;;;;;7.01;74.64;95687.97;5073034;28;20220;-82
2023/01/11 07:37:46;;;;;;;2.60;1.43;;;;;;;7.04;74.38;95691.03;5072750;28;20220;-82
2023/01/11 07:40:15;;;;;;;1.67;1.20;;;;;;;7.04;74.53;95685.91;5074350;28;20270;-82
2023/01/11 07:45:31;;;;;;;2.47;1.30;;;;;;;7.07;74.07;95680.50;5073870;28;20227;-82
2023/01/11 07:47:58;;;;;;;3.33;1.20;;;;;;;7.08;73.80;95686.41;5074975;28;20576;-82
2023/01/11 07:50:24;;;;;;;5.07;1.20;;;;;;;7.09;73.12;95683.72;5074422;28;20201;-82
2023/01/11 07:52:51;;;;;;;1.80;1.10;;;;;;;7.10;73.46;95676.81;5076049;28;20208;-84
2023/01/11 07:55:18;;;;;;;1.73;1.00;;;;;;;7.08;72.88;95684.66;5076029;28;20235;-84
2023/01/11 07:57:44;;;;;;;1.20;1.10;;;;;;;7.05;72.98;95684.97;5076339;28;20231;-85
2023/01/11 08:00:16;;;;;;;1.97;1.20;;;;;;;7.04;72.91;95682.53;5077198;28;20205;-82
2023/01/11 08:02:42;;;;;;;2.30;1.30;;;;;;;7.04;73.38;95682.53;5077190;28;20224;-85
2023/01/11 08:05:09;;;;;;;2.50;1.53;;;;;;;7.06;73.40;95678.09;5075227;28;20248;-85
2023/01/11 08:07:36;;;;;;;2.47;1.60;;;;;;;7.08;73.33;95666.75;5076491;28;20201;-85
2023/01/11 08:10:03;;;;;;;1.73;1.23;;;;;;;7.09;73.39;95668.34;5076134;28;20197;-85
2023/01/11 08:15:15;;;;;;;1.47;1.20;;;;;;;7.07;72.69;95669.44;5074236;28;20239;-82
2023/01/11 08:17:43;;;;;;;1.50;1.20;;;;;;;7.09;72.60;95672.66;5073609;28;20668;-82
2023/01/11 08:20:12;;;;;;;2.27;1.10;;;;;;;7.09;72.31;95667.53;5075346;28;20288;-84
2023/01/11 08:22:41;;;;;;;1.60;1.10;;;;;;;7.09;71.72;95662.41;5074877;28;20220;-84
2023/01/11 08:25:11;;;;;;;1.80;1.20;;;;;;;7.09;71.84;95664.97;5076101;28;20236;-85
2023/01/11 08:27:38;;;;;;;1.43;1.30;;;;;;;7.10;71.91;95658.91;5075244;28;20247;-85
2023/01/11 08:30:05;;;;;;;1.03;1.00;;;;;;;7.05;71.36;95656.81;5076271;28;20193;-85
2023/01/11 08:32:33;;;;;;;1.20;1.10;;;;;;;7.11;71.15;95660.50;5076410;28;20200;-85
2023/01/11 08:35:00;;;;;;;1.80;1.13;;;;;;;7.16;71.32;95650.59;5076005;28;20225;-85
2023/01/11 08:37:26;;;;;;;1.20;1.10;;;;;;;7.14;70.87;95658.41;5075586;28;20208;-82
2023/01/11 08:39:54;;;;;;;2.17;1.30;;;;;;;7.17;70.75;95652.19;5076855;28;20197;-82
2023/01/11 08:42:23;;;;;;;1.57;1.20;;;;;;;7.15;69.97;95644.66;5076270;28;20220;-82
2023/01/11 08:44:49;;;;;;;1.43;1.33;;;;;;;7.22;70.10;95639.75;5076754;28;20235;-85
2023/01/11 08:47:16;;;;;;;2.10;1.43;;;;;;;7.29;70.19;95640.75;5075790;28;20523;-85
2023/01/11 08:49:47;;;;;;;1.30;1.10;;;;;;;7.32;69.54;95629.34;5076400;28;20204;-85
2023/01/11 08:52:14;;;;;;;0.80;0.80;;;;;;;7.32;69.10;95629.34;5076025;28;20200;-85
2023/01/11 08:54:41;;;;;;;1.23;0.80;;;;;;;7.36;69.17;95621.22;5075957;28;20229;-83
2023/01/11 08:57:08;;;;;;;0.77;0.77;;;;;;;7.43;68.83;95627.34;5074485;28;20215;-85
2023/01/11 08:59:37;;;;;;;3.73;1.20;;;;;;;7.53;68.95;95625.44;5075171;28;20214;-82
2023/01/11 09:02:05;;;;;;;1.17;1.07;;;;;;;7.61;68.83;95622.91;5074582;28;20220;-82
2023/01/11 09:04:32;;;;;;;1.33;1.00;;;;;;;7.82;68.49;95624.22;5074295;28;20209;-85
2023/01/11 09:07:00;;;;;;;1.47;1.00;;;;;;;7.88;67.88;95623.59;5073763;28;20231;-85
2023/01/11 09:09:27;;;;;;;1.17;1.07;;;;;;;7.93;67.51;95616.19;5075366;28;20204;-82
2023/01/11 09:11:53;;;;;;;1.27;1.10;;;;;;;7.99;67.56;95615.56;5074128;28;20376;-82
2023/01/11 09:14:20;;;;;;;0.93;0.93;;;;;;;8.04;67.69;95617.66;5073559;28;20728;-83
2023/01/11 09:16:47;;;;;;;2.13;1.60;;;;;;;8.20;67.31;95608.22;5075207;28;20205;-82
2023/01/11 09:19:14;;;;;;;1.10;0.90;;;;;;;8.33;67.15;95615.44;5073605;28;20196;-82
2023/01/11 09:21:40;;;;;;;1.10;0.80;;;;;;;8.42;66.44;95613.69;5074665;28;20201;-82
2023/01/11 09:24:08;;;;;;;1.50;1.10;;;;;;;8.49;65.94;95614.59;5074690;28;20230;-82
2023/01/11 09:26:36;;;;;;;1.70;1.00;;;;;;;8.56;66.13;95608.66;5074949;28;20197;-83
2023/01/11 09:29:03;;;;;;;1.00;0.90;;;;;;;8.57;65.75;95609.47;5075263;28;20223;-82
2023/01/11 09:31:30;;;;;;;0.83;0.80;;;;;;;8.60;65.82;95609.16;5074358;28;20660;-82
2023/01/11 09:33:56;;;;;;;3.03;0.93;;;;;;;8.67;66.03;95602.38;5074132;28;20203;-82
2023/01/11 09:36:25;;;;;;;0.83;0.73;;;;;;;8.69;65.73;95617.63;5073428;28;20597;-82
2023/01/11 09:38:55;;;;;;;1.20;0.97;;;;;;;8.74;65.60;95616.19;5073917;28;20216;-82
2023/01/11 09:41:34;;;;;;;1.20;1.10;;;;;;;8.80;65.54;95618.09;5073381;28;20201;-83
2023/01/11 09:44:15;;;;;;;1.73;1.03;;;;;;;8.92;65.43;95608.25;5078649;28;20719;-83
2023/01/11 09:46:45;;;;;;;1.67;1.00;;;;;;;9.05;65.07;95605.97;5077597;28;20208;-83
2023/01/11 09:49:18;;;;;;;1.10;1.00;;;;;;;9.09;64.86;95604.66;5076195;28;20227;-82
2023/01/11 09:51:46;;;;;;;1.30;0.97;;;;;;;9.14;64.54;95599.84;5076675;28;20208;-83
2023/01/11 09:54:20;;;;;;;1.33;1.00;;;;;;;9.26;64.01;95597.69;5076044;28;20231;-83
2023/01/11 09:57:00;;;;;;;1.10;1.00;;;;;;;9.45;64.39;95607.53;5076168;28;20205;-83
2023/01/11 09:59:33;;;;;;;1.00;0.80;;;;;;;9.50;63.53;95607.03;5076347;28;20205;-83
2023/01/11 10:02:10;;;;;;;1.83;1.00;;;;;;;9.48;63.48;95606.41;5077348;28;20582;-83
2023/01/11 10:05:10;;;;;;;0.73;0.70;;;;;;;9.45;62.88;95599.84;5077045;28;20257;-83
2023/01/11 10:07:53;;;;;;;0.80;0.80;;;;;;;9.53;62.29;95597.22;5077747;28;20204;-83
2023/01/11 10:10:30;;;;;;;0.80;0.80;;;;;;;9.75;62.56;95602.56;5076830;28;20224;-83
2023/01/11 10:13:12;;;;;;;1.40;0.90;;;;;;;9.91;62.27;95599.88;5077083;28;20308;-83
2023/01/11 10:15:45;;;;;;;0.70;0.70;;;;;;;10.03;61.47;95612.16;5076840;28;20653;-83
2023/01/11 10:18:26;;;;;;;1.10;1.00;;;;;;;10.25;61.45;95613.16;5076587;28;20262;-83
2023/01/11 10:21:00;;;;;;;1.13;1.03;;;;;;;10.43;61.23;95607.69;5072948;28;20193;-83
2023/01/11 10:23:40;;;;;;;0.83;0.83;;;;;;;10.43;61.21;95604.31;5076728;28;20280;-83
2023/01/11 10:26:16;;;;;;;0.93;0.80;;;;;;;10.38;60.52;95600.50;5075882;28;20222;-83
2023/01/11 10:29:06;;;;;;;1.07;0.90;;;;;;;10.36;60.80;95599.88;5076631;28;20659;-83
2023/01/11 10:31:47;;;;;;;1.50;1.03;;;;;;;10.34;61.53;95601.03;5076128;28;20204;-83
2023/01/11 10:34:37;;;;;;;1.23;1.03;;;;;;;10.27;61.34;95590.63;5074772;28;20219;-83
2023/01/11 10:37:25;;;;;;;1.17;1.07;;;;;;;10.35;61.27;95593.13;5075903;28;20200;-83
2023/01/11 10:40:20;;;;;;;1.47;0.80;;;;;;;10.40;60.99;95597.72;5075148;28;20292;-83
2023/01/11 10:42:52;;;;;;;1.67;1.10;;;;;;;10.49;61.07;95594.13;5075786;28;20292;-83
2023/01/11 10:45:24;;;;;;;2.50;1.10;;;;;;;10.56;60.98;95595.03;5075939;28;20307;-83
2023/01/11 10:48:00;;;;;;;1.10;1.00;;;;;;;10.68;61.21;95587.66;5074475;28;20314;-83
2023/01/11 10:50:30;;;;;;;1.20;1.10;;;;;;;10.70;60.14;95583.94;5076288;28;20326;-83
2023/01/11 10:53:06;;;;;;;1.40;1.20;;;;;;;10.78;60.50;95582.25;5073049;28;20208;-83
2023/01/11 10:55:42;;;;;;;3.13;1.13;;;;;;;10.86;60.22;95575.22;5075089;28;20224;-83
2023/01/11 10:58:22;;;;;;;2.90;1.30;;;;;;;11.02;60.19;95569.88;5073679;28;20283;-83
2023/01/11 11:00:59;;;;;;;1.30;1.00;;;;;;;11.03;58.98;95557.81;5074290;28;20204;-83
2023/01/11 11:03:41;;;;;;;0.93;0.90;;;;;;;11.01;58.27;95547.69;5074283;28;20231;-83
2023/01/11 11:06:14;;;;;;;0.80;0.77;;;;;;;11.12;59.18;95551.59;5074073;28;20232;-83
2023/01/11 11:08:48;;;;;;;1.03;0.80;;;;;;;11.15;57.99;95553.00;5074708;28;20201;-83
2023/01/11 11:11:20;;;;;;;2.27;0.90;;;;;;;11.16;57.98;95547.66;5074781;28;20208;-83
2023/01/11 11:13:53;;;;;;;1.47;0.70;;;;;;;11.22;58.14;95546.13;5075028;28;20208;-84
2023/01/11 11:16:35;;;;;;;1.10;1.00;;;;;;;11.20;57.71;95540.38;5073995;28;20582;-83
2023/01/11 11:19:01;;;;;;;1.00;0.90;;;;;;;11.26;58.66;95540.44;5074252;28;20560;-83
2023/01/11 11:21:32;;;;;;;1.33;0.87;;;;;;;11.32;58.34;95541.50;5073176;28;20200;-83
2023/01/11 11:24:02;;;;;;;1.97;0.90;;;;;;;11.29;58.19;95536.72;5074601;28;20225;-83
2023/01/11 11:26:36;;;;;;;1.63;0.87;;;;;;;11.24;58.60;95539.81;5073843;28;20642;-83
2023/01/11 11:29:05;;;;;;;1.70;0.90;;;;;;;11.13;59.23;95535.16;5073071;28;20681;-83
2023/01/11 11:31:35;;;;;;;1.27;0.87;;;;;;;11.07;58.90;95536.66;5073839;28;20270;-83
2023/01/11 11:34:06;;;;;;;1.57;0.90;;;;;;;11.05;59.03;95528.31;5073476;28;20690;-83
2023/01/11 11:36:42;;;;;;;2.77;0.80;;;;;;;10.98;59.05;95527.44;5074323;28;20362;-83
2023/01/11 11:39:16;;;;;;;2.00;0.80;;;;;;;11.00;59.73;95519.53;5074441;28;20261;-83
2023/01/11 11:41:47;;;;;;;1.13;0.90;;;;;;;11.00;59.82;95514.38;5074229;28;20200;-83
2023/01/11 11:44:19;;;;;;;1.70;0.97;;;;;;;10.94;59.71;95510.75;5074794;28;20212;-83
2023/01/11 11:47:01;;;;;;;3.03;1.00;;;;;;;10.90;59.60;95513.88;5073568;28;20212;-83
2023/01/11 11:49:29;;;;;;;2.27;0.80;;;;;;;10.92;60.29;95506.75;5073410;28;20212;-83
2023/01/11 11:51:56;;;;;;;1.10;1.00;;;;;;;10.96;60.47;95505.44;5073258;28;20216;-83
2023/01/11 11:54:27;;;;;;;3.73;0.90;;;;;;;10.93;60.50;95500.63;5073633;28;20417;-83
2023/01/11 11:56:55;;;;;;;2.10;0.97;;;;;;;10.88;60.12;95497.78;5073370;28;20827;-83
2023/01/11 11:59:24;;;;;;;1.07;0.80;;;;;;;10.84;60.50;95496.53;5073125;28;20204;-83
2023/01/11 12:01:59;;;;;;;1.53;1.03;;;;;;;10.85;60.57;95491.22;5070881;28;20885;-83
2023/01/11 12:04:39;;;;;;;0.90;0.90;;;;;;;10.87;60.55;95496.19;5058987;28;20744;-83
2023/01/11 12:07:08;;;;;;;1.27;1.03;;;;;;;10.86;60.50;95481.72;5074235;28;20196;-83
2023/01/11 12:09:36;;;;;;;1.27;0.83;;;;;;;10.84;60.77;95481.88;5072961;28;20690;-83
2023/01/11 12:12:04;;;;;;;1.00;0.90;;;;;;;10.86;61.37;95482.50;5073638;28;20212;-83
2023/01/11 12:14:33;;;;;;;0.70;0.70;;;;;;;10.86;61.43;95482.50;5073259;28;20235;-83